Time;durP1;ratioP1;P1;durP2;ratioP2;P2;SDS_P1;SDS_P2;PMS_P1;PMS_P2;Temp;Humidity;BMP_temperature;BMP_pressure;BME280_temperature;BME280_humidity;BME280_pressure;Samples;Min_cycle;Max_cycle;Signal;HPM_P1;HPM_P2
2022/10/17 00:00:19;;;;;;;3.23;2.93;;;15.40;99.90;;;;;;494346;237;28276;-80
2022/10/17 00:02:20;;;;;;;3.47;2.80;;;15.50;99.90;;;;;;494324;241;28287;-79
2022/10/17 00:04:21;;;;;;;2.90;2.70;;;15.40;99.90;;;;;;494168;241;28339;-80
2022/10/17 00:06:22;;;;;;;4.90;2.90;;;15.50;99.90;;;;;;494258;237;28303;-80
2022/10/17 00:08:24;;;;;;;2.97;2.77;;;15.50;99.90;;;;;;494142;241;28478;-80
2022/10/17 00:10:25;;;;;;;4.20;2.90;;;15.50;99.90;;;;;;494173;241;28397;-81
2022/10/17 00:12:26;;;;;;;2.63;2.50;;;15.50;99.90;;;;;;494117;241;28452;-80
2022/10/17 00:14:27;;;;;;;3.10;2.90;;;15.40;99.90;;;;;;494118;241;28884;-80
2022/10/17 00:16:29;;;;;;;2.90;2.70;;;15.40;99.90;;;;;;494263;241;29028;-80
2022/10/17 00:18:30;;;;;;;2.87;2.67;;;15.40;99.90;;;;;;494265;237;28270;-80
2022/10/17 00:20:31;;;;;;;2.77;2.60;;;15.40;99.90;;;;;;494116;241;28559;-80
2022/10/17 00:22:32;;;;;;;3.10;2.90;;;15.40;99.90;;;;;;494162;241;28536;-80
2022/10/17 00:24:34;;;;;;;2.70;2.50;;;15.30;99.90;;;;;;494318;241;28353;-80
2022/10/17 00:26:35;;;;;;;2.47;2.37;;;15.20;99.90;;;;;;493994;240;28257;-80
2022/10/17 00:28:36;;;;;;;2.90;2.60;;;15.30;99.90;;;;;;494115;237;28153;-80
2022/10/17 00:30:37;;;;;;;5.20;3.30;;;15.30;99.90;;;;;;494136;241;28327;-80
2022/10/17 00:32:39;;;;;;;4.30;3.00;;;15.20;99.90;;;;;;494335;241;28284;-81
2022/10/17 00:34:40;;;;;;;2.83;2.63;;;15.30;99.90;;;;;;494335;241;28275;-80
2022/10/17 00:36:41;;;;;;;2.60;2.43;;;15.20;99.90;;;;;;494267;241;28358;-80
2022/10/17 00:38:42;;;;;;;2.77;2.57;;;15.40;99.90;;;;;;494320;239;29010;-80
2022/10/17 00:40:44;;;;;;;3.00;2.70;;;15.40;99.90;;;;;;494151;241;28739;-80
2022/10/17 00:42:45;;;;;;;3.03;2.83;;;15.40;99.90;;;;;;494137;241;28727;-80
2022/10/17 00:44:46;;;;;;;3.17;2.87;;;15.50;99.90;;;;;;494357;241;28126;-80
2022/10/17 00:46:47;;;;;;;3.03;2.83;;;15.70;99.90;;;;;;494130;241;28178;-80
2022/10/17 00:48:49;;;;;;;5.93;2.80;;;15.80;99.90;;;;;;494135;241;28262;-80
2022/10/17 00:50:50;;;;;;;2.97;2.77;;;15.80;99.90;;;;;;494344;241;28413;-79
2022/10/17 00:52:51;;;;;;;3.03;2.50;;;15.90;99.90;;;;;;494338;241;28355;-80
2022/10/17 00:54:52;;;;;;;3.73;2.90;;;15.90;99.90;;;;;;494159;241;28292;-80
2022/10/17 00:56:54;;;;;;;3.20;2.90;;;15.80;99.90;;;;;;494271;241;28248;-80
2022/10/17 00:58:55;;;;;;;3.67;2.90;;;15.60;99.90;;;;;;494262;237;28295;-79
2022/10/17 01:00:56;;;;;;;3.97;3.13;;;15.50;99.90;;;;;;494157;241;28611;-80
2022/10/17 01:02:57;;;;;;;3.27;3.07;;;15.50;99.90;;;;;;494077;241;28919;-80
2022/10/17 01:04:59;;;;;;;3.30;2.90;;;15.40;99.90;;;;;;494313;241;28891;-80
2022/10/17 01:07:00;;;;;;;8.63;3.00;;;15.40;99.90;;;;;;494253;241;28871;-80
2022/10/17 01:09:01;;;;;;;2.73;2.53;;;15.40;99.90;;;;;;494152;241;28138;-80
2022/10/17 01:11:02;;;;;;;5.03;2.63;;;15.40;99.90;;;;;;494291;241;28709;-80
2022/10/17 01:13:04;;;;;;;3.93;3.00;;;15.40;99.90;;;;;;494305;241;28273;-80
2022/10/17 01:15:05;;;;;;;2.90;2.70;;;15.40;99.90;;;;;;494341;241;28041;-80
2022/10/17 01:17:06;;;;;;;3.10;2.70;;;15.40;99.90;;;;;;494093;241;28073;-80
2022/10/17 01:19:07;;;;;;;3.20;2.60;;;15.40;99.90;;;;;;494248;237;28350;-79
2022/10/17 01:21:09;;;;;;;4.07;2.70;;;15.30;99.90;;;;;;494315;241;28175;-80
2022/10/17 01:23:10;;;;;;;5.33;2.70;;;15.20;99.90;;;;;;494111;241;28133;-79
2022/10/17 01:25:11;;;;;;;3.27;2.97;;;15.20;99.90;;;;;;494313;241;28656;-80
2022/10/17 01:27:12;;;;;;;7.40;3.03;;;15.10;99.90;;;;;;494010;241;28780;-80
2022/10/17 01:29:14;;;;;;;3.87;2.90;;;15.20;99.90;;;;;;494324;237;28906;-80
2022/10/17 01:31:15;;;;;;;4.47;2.90;;;15.20;99.90;;;;;;494334;241;28077;-80
2022/10/17 01:33:16;;;;;;;3.33;2.97;;;15.30;99.90;;;;;;494156;241;28174;-80
2022/10/17 01:35:17;;;;;;;3.03;2.83;;;15.50;99.90;;;;;;494146;241;28438;-80
2022/10/17 01:37:19;;;;;;;3.60;3.30;;;15.70;99.90;;;;;;494076;241;28272;-80
2022/10/17 01:39:20;;;;;;;3.03;2.83;;;15.70;99.90;;;;;;494305;241;28270;-79
2022/10/17 01:41:21;;;;;;;3.30;3.00;;;15.80;99.90;;;;;;494103;241;28278;-80
2022/10/17 01:43:22;;;;;;;2.90;2.70;;;15.70;99.90;;;;;;494171;241;28470;-80
2022/10/17 01:45:24;;;;;;;3.10;2.90;;;15.80;99.90;;;;;;494345;241;28580;-80
2022/10/17 01:47:25;;;;;;;3.20;3.00;;;15.80;99.90;;;;;;494142;237;28109;-80
2022/10/17 01:49:26;;;;;;;5.00;3.20;;;15.80;99.90;;;;;;494343;241;28957;-81
2022/10/17 01:51:27;;;;;;;3.27;2.97;;;15.80;99.90;;;;;;494325;241;28786;-80
2022/10/17 01:53:29;;;;;;;3.30;2.70;;;15.70;99.90;;;;;;494391;241;28809;-80
2022/10/17 01:55:30;;;;;;;2.93;2.73;;;15.70;99.90;;;;;;494390;241;28460;-81
2022/10/17 01:57:31;;;;;;;3.33;3.03;;;15.60;99.90;;;;;;494219;241;28277;-81
2022/10/17 01:59:32;;;;;;;2.90;2.70;;;15.80;99.90;;;;;;494320;241;28311;-81
2022/10/17 02:01:34;;;;;;;4.60;3.27;;;15.80;99.90;;;;;;494304;239;28163;-83
2022/10/17 02:03:35;;;;;;;4.07;3.47;;;15.80;99.90;;;;;;494319;240;28264;-81
2022/10/17 02:05:36;;;;;;;3.50;3.20;;;15.80;99.90;;;;;;494556;241;28689;-81
2022/10/17 02:07:38;;;;;;;3.13;2.93;;;15.80;99.90;;;;;;494277;241;28710;-80
2022/10/17 02:09:39;;;;;;;3.37;3.17;;;15.80;99.90;;;;;;494316;241;28280;-80
2022/10/17 02:11:40;;;;;;;3.07;2.87;;;15.80;99.90;;;;;;494293;241;28270;-80
2022/10/17 02:13:41;;;;;;;5.60;3.10;;;15.80;99.90;;;;;;494354;241;29022;-80
2022/10/17 02:15:43;;;;;;;3.23;2.80;;;15.70;99.90;;;;;;494365;241;29185;-80
2022/10/17 02:17:44;;;;;;;3.27;2.93;;;15.80;99.90;;;;;;494254;237;28823;-80
2022/10/17 02:19:45;;;;;;;3.20;3.00;;;15.90;99.90;;;;;;494159;239;28517;-81
2022/10/17 02:21:46;;;;;;;3.93;3.40;;;15.90;99.90;;;;;;494150;241;28428;-80
2022/10/17 02:23:48;;;;;;;4.57;3.30;;;15.90;99.90;;;;;;494308;241;28310;-80
2022/10/17 02:25:49;;;;;;;3.80;2.77;;;15.90;99.90;;;;;;494310;241;28410;-80
2022/10/17 02:27:50;;;;;;;4.10;3.20;;;15.90;99.90;;;;;;494043;241;28399;-81
2022/10/17 02:29:51;;;;;;;6.03;3.60;;;15.90;99.90;;;;;;494129;241;28391;-80
2022/10/17 02:31:53;;;;;;;5.90;3.80;;;16.00;99.90;;;;;;494315;241;28154;-80
2022/10/17 02:33:54;;;;;;;5.73;3.77;;;16.10;99.90;;;;;;494328;241;28499;-80
2022/10/17 02:35:55;;;;;;;4.50;3.30;;;16.10;99.90;;;;;;494298;241;28806;-80
2022/10/17 02:37:56;;;;;;;4.80;3.47;;;16.10;99.90;;;;;;494093;237;29245;-80
2022/10/17 02:39:58;;;;;;;3.73;3.37;;;16.10;99.90;;;;;;494159;241;29448;-82
2022/10/17 02:41:59;;;;;;;3.43;3.13;;;16.10;99.90;;;;;;494411;241;28392;-83
2022/10/17 02:44:00;;;;;;;4.83;3.57;;;16.10;99.90;;;;;;494479;241;28396;-80
2022/10/17 02:46:01;;;;;;;4.27;3.13;;;16.10;99.90;;;;;;494276;241;28785;-80
2022/10/17 02:48:03;;;;;;;3.40;3.20;;;16.00;99.90;;;;;;494102;241;28697;-80
2022/10/17 02:50:04;;;;;;;4.03;3.60;;;15.90;99.90;;;;;;494182;238;28604;-80
2022/10/17 02:52:05;;;;;;;3.80;3.50;;;15.90;99.90;;;;;;494306;241;28152;-81
2022/10/17 02:54:06;;;;;;;3.47;2.77;;;15.90;99.90;;;;;;494344;241;28450;-80
2022/10/17 02:56:08;;;;;;;6.30;3.60;;;15.90;99.90;;;;;;494104;241;28579;-80
2022/10/17 02:58:09;;;;;;;3.87;3.57;;;15.90;99.90;;;;;;494282;241;29060;-80
2022/10/17 03:00:10;;;;;;;4.93;3.10;;;15.80;99.90;;;;;;494150;241;29537;-80
2022/10/17 03:02:11;;;;;;;3.03;2.73;;;15.80;99.90;;;;;;494112;241;29515;-80
2022/10/17 03:04:13;;;;;;;3.27;2.97;;;15.80;99.90;;;;;;494181;241;28504;-80
2022/10/17 03:06:14;;;;;;;3.10;2.80;;;15.80;99.90;;;;;;494234;241;28467;-81
2022/10/17 03:08:15;;;;;;;3.23;3.03;;;15.80;99.90;;;;;;494172;237;28183;-80
2022/10/17 03:10:16;;;;;;;3.27;3.00;;;15.70;99.90;;;;;;494309;241;28169;-79
2022/10/17 03:12:18;;;;;;;3.13;2.93;;;15.80;99.90;;;;;;494349;241;28487;-80
2022/10/17 03:14:19;;;;;;;3.83;2.73;;;15.70;99.90;;;;;;494128;241;28386;-80
2022/10/17 03:16:20;;;;;;;3.30;2.77;;;15.70;99.90;;;;;;494090;241;28478;-80
2022/10/17 03:18:21;;;;;;;3.50;3.20;;;15.70;99.90;;;;;;494130;241;28395;-80
2022/10/17 03:20:23;;;;;;;3.00;2.80;;;15.60;99.90;;;;;;494141;238;28816;-80
2022/10/17 03:22:24;;;;;;;9.53;3.37;;;15.70;99.90;;;;;;494166;241;28851;-80
2022/10/17 03:24:25;;;;;;;2.97;2.77;;;15.60;99.90;;;;;;494336;241;28963;-80
2022/10/17 03:26:28;;;;;;;2.93;2.73;;;15.60;99.90;;;;;;494085;241;28890;-80
2022/10/17 03:28:28;;;;;;;3.20;3.00;;;15.60;99.90;;;;;;494158;237;28453;-80
2022/10/17 03:30:29;;;;;;;2.70;2.50;;;15.60;99.90;;;;;;494139;237;28376;-80
2022/10/17 03:32:30;;;;;;;2.40;2.30;;;15.60;99.90;;;;;;494112;241;28367;-80
2022/10/17 03:34:31;;;;;;;3.07;2.87;;;15.50;99.90;;;;;;494304;241;28474;-80
2022/10/17 03:36:33;;;;;;;3.13;2.83;;;15.50;99.90;;;;;;494040;241;28371;-80
2022/10/17 03:38:34;;;;;;;5.00;2.70;;;15.50;99.90;;;;;;494110;241;28380;-80
2022/10/17 03:40:35;;;;;;;4.20;3.20;;;15.50;99.90;;;;;;494325;241;28341;-80
2022/10/17 03:42:36;;;;;;;7.20;3.10;;;15.50;99.90;;;;;;494327;241;28224;-81
2022/10/17 03:44:38;;;;;;;3.47;3.17;;;15.50;99.90;;;;;;494285;239;28199;-80
2022/10/17 03:46:39;;;;;;;2.97;2.77;;;15.50;99.90;;;;;;494111;241;28872;-80
2022/10/17 03:48:40;;;;;;;3.50;3.20;;;15.60;99.90;;;;;;494191;241;28665;-80
2022/10/17 03:50:41;;;;;;;4.10;3.03;;;15.60;99.90;;;;;;494287;241;28774;-80
2022/10/17 03:52:43;;;;;;;4.40;3.20;;;15.60;99.90;;;;;;494310;241;28380;-80
2022/10/17 03:54:44;;;;;;;3.37;3.07;;;15.60;99.90;;;;;;494168;241;28861;-79
2022/10/17 03:56:45;;;;;;;2.97;2.77;;;15.70;99.90;;;;;;494268;241;28351;-80
2022/10/17 03:58:46;;;;;;;3.30;3.00;;;15.70;99.90;;;;;;494132;241;28372;-80
2022/10/17 04:00:48;;;;;;;2.83;2.63;;;15.70;99.90;;;;;;494154;241;28184;-80
2022/10/17 04:02:49;;;;;;;3.80;3.40;;;15.90;99.90;;;;;;494291;241;28251;-80
2022/10/17 04:04:50;;;;;;;3.40;3.10;;;15.90;99.90;;;;;;494327;241;28149;-80
2022/10/17 04:06:51;;;;;;;3.00;2.80;;;15.90;99.90;;;;;;494237;239;28291;-80
2022/10/17 04:08:53;;;;;;;3.60;3.30;;;15.90;99.90;;;;;;494211;237;28891;-80
2022/10/17 04:10:54;;;;;;;3.80;3.50;;;16.00;99.90;;;;;;494155;240;28932;-80
2022/10/17 04:12:55;;;;;;;5.03;2.90;;;16.00;99.90;;;;;;494160;241;29003;-80
2022/10/17 04:14:56;;;;;;;3.93;3.53;;;16.00;99.90;;;;;;494102;241;28913;-81
2022/10/17 04:16:58;;;;;;;3.10;2.90;;;16.00;99.90;;;;;;494291;241;28372;-80
2022/10/17 04:18:59;;;;;;;3.27;2.97;;;16.00;99.90;;;;;;494123;237;28559;-81
2022/10/17 04:21:00;;;;;;;3.70;2.93;;;16.00;99.90;;;;;;494158;241;28392;-80
2022/10/17 04:23:01;;;;;;;3.07;2.70;;;16.00;99.90;;;;;;494080;241;28505;-80
2022/10/17 04:25:03;;;;;;;3.40;3.00;;;16.10;99.90;;;;;;494324;241;28406;-80
2022/10/17 04:27:04;;;;;;;3.50;2.90;;;16.10;99.90;;;;;;494035;241;28464;-80
2022/10/17 04:29:05;;;;;;;3.10;2.83;;;16.10;99.90;;;;;;494266;241;28177;-80
2022/10/17 04:31:06;;;;;;;3.37;2.90;;;16.20;99.90;;;;;;494283;241;28265;-80
2022/10/17 04:33:08;;;;;;;4.07;3.20;;;16.10;99.90;;;;;;494297;241;28874;-80
2022/10/17 04:35:09;;;;;;;5.50;3.20;;;16.10;99.90;;;;;;494120;241;29291;-80
2022/10/17 04:37:10;;;;;;;3.63;3.43;;;16.20;99.90;;;;;;494084;241;28759;-81
2022/10/17 04:39:11;;;;;;;3.53;3.33;;;16.20;99.90;;;;;;494146;241;28697;-80
2022/10/17 04:41:13;;;;;;;3.97;3.57;;;16.20;99.90;;;;;;494080;241;28868;-80
2022/10/17 04:43:14;;;;;;;3.87;3.37;;;16.30;99.90;;;;;;494267;241;28504;-80
2022/10/17 04:45:15;;;;;;;3.33;2.90;;;16.30;99.90;;;;;;494123;241;28836;-80
2022/10/17 04:47:16;;;;;;;3.47;3.20;;;16.30;99.90;;;;;;494231;241;28681;-80
2022/10/17 04:49:18;;;;;;;3.17;2.97;;;16.30;99.90;;;;;;494088;237;28827;-80
2022/10/17 04:51:19;;;;;;;3.73;3.43;;;16.20;99.90;;;;;;494114;241;28792;-80
2022/10/17 04:53:20;;;;;;;3.50;2.83;;;16.20;99.90;;;;;;494121;241;28467;-80
2022/10/17 04:55:21;;;;;;;3.10;2.83;;;16.30;99.90;;;;;;494141;241;28500;-80
2022/10/17 04:57:23;;;;;;;2.97;2.77;;;16.30;99.90;;;;;;494037;241;29390;-80
2022/10/17 04:59:24;;;;;;;3.30;3.10;;;16.40;99.90;;;;;;494114;241;29016;-80
2022/10/17 05:01:25;;;;;;;2.77;2.57;;;16.30;99.90;;;;;;494329;241;29201;-80
2022/10/17 05:03:26;;;;;;;3.70;3.20;;;16.20;99.90;;;;;;494325;241;28688;-79
2022/10/17 05:05:28;;;;;;;2.90;2.70;;;16.20;99.90;;;;;;494315;241;28777;-80
2022/10/17 05:07:29;;;;;;;3.67;3.37;;;16.20;99.90;;;;;;494030;237;28396;-80
2022/10/17 05:09:30;;;;;;;2.87;2.67;;;16.20;99.90;;;;;;494279;241;28450;-80
2022/10/17 05:11:31;;;;;;;3.30;3.10;;;16.00;99.90;;;;;;494276;241;28692;-81
2022/10/17 05:13:33;;;;;;;2.90;2.70;;;15.90;99.90;;;;;;494276;241;28896;-80
2022/10/17 05:15:34;;;;;;;3.17;2.97;;;15.70;99.90;;;;;;494135;239;28819;-80
2022/10/17 05:17:35;;;;;;;3.13;2.90;;;15.70;99.90;;;;;;494052;241;28169;-80
2022/10/17 05:19:36;;;;;;;3.03;2.83;;;15.60;99.90;;;;;;494323;241;28768;-80
2022/10/17 05:21:38;;;;;;;2.77;2.57;;;15.60;99.90;;;;;;494310;241;28684;-80
2022/10/17 05:23:39;;;;;;;2.93;2.80;;;15.60;99.90;;;;;;494319;241;28964;-80
2022/10/17 05:25:40;;;;;;;2.90;2.70;;;15.60;99.90;;;;;;494281;241;28280;-80
2022/10/17 05:27:41;;;;;;;3.30;3.10;;;15.60;99.90;;;;;;494251;241;28192;-80
2022/10/17 05:29:44;;;;;;;2.60;2.40;;;15.60;99.90;;;;;;494178;241;28279;-80
2022/10/17 05:31:44;;;;;;;4.83;2.40;;;15.70;99.90;;;;;;494092;241;28519;-80
2022/10/17 05:33:45;;;;;;;3.20;2.70;;;15.70;99.90;;;;;;494138;241;28479;-80
2022/10/17 05:35:46;;;;;;;2.97;2.77;;;15.70;99.90;;;;;;494277;241;28400;-80
2022/10/17 05:37:48;;;;;;;3.30;3.00;;;15.70;99.90;;;;;;494196;237;28275;-80
2022/10/17 05:39:49;;;;;;;2.80;2.60;;;15.70;99.90;;;;;;494313;241;28275;-81
2022/10/17 05:41:51;;;;;;;2.93;2.60;;;15.60;99.90;;;;;;494319;241;28355;-79
2022/10/17 05:43:51;;;;;;;3.03;2.83;;;15.60;99.90;;;;;;494277;241;28625;-81
2022/10/17 05:45:53;;;;;;;2.90;2.70;;;15.60;99.90;;;;;;494316;241;28955;-80
2022/10/17 05:47:54;;;;;;;2.43;2.23;;;15.50;99.90;;;;;;494078;237;29079;-80
2022/10/17 05:49:55;;;;;;;2.90;2.70;;;15.50;99.90;;;;;;494311;241;28491;-80
2022/10/17 05:51:56;;;;;;;2.70;2.50;;;15.50;99.90;;;;;;494313;241;28355;-80
2022/10/17 05:53:58;;;;;;;3.20;3.00;;;15.40;99.90;;;;;;494129;241;28499;-80
2022/10/17 05:55:59;;;;;;;3.17;2.97;;;15.40;99.90;;;;;;494127;241;28277;-79
2022/10/17 05:58:00;;;;;;;2.37;2.27;;;15.30;99.90;;;;;;494270;241;28375;-80
2022/10/17 06:00:02;;;;;;;2.73;2.53;;;15.30;99.90;;;;;;494325;241;28269;-81
2022/10/17 06:02:03;;;;;;;3.03;2.83;;;15.30;99.90;;;;;;494315;241;28186;-80
2022/10/17 06:04:04;;;;;;;2.23;2.13;;;15.20;99.90;;;;;;494307;241;28155;-80
2022/10/17 06:06:05;;;;;;;2.60;2.50;;;15.20;99.90;;;;;;494196;241;28266;-79
2022/10/17 06:08:09;;;;;;;2.23;2.13;;;15.20;99.90;;;;;;494653;241;28143;-80
2022/10/17 06:10:15;;;;;;;2.63;2.43;;;15.10;99.90;;;;;;494517;241;28058;-80
2022/10/17 06:12:14;;;;;;;5.03;2.67;;;15.20;99.90;;;;;;494309;241;28150;-79
2022/10/17 06:14:16;;;;;;;2.70;2.50;;;15.30;99.90;;;;;;494387;241;28680;-81
2022/10/17 06:16:17;;;;;;;2.93;2.70;;;15.30;99.90;;;;;;494324;241;28248;-81
2022/10/17 06:18:18;;;;;;;3.00;2.57;;;15.40;99.90;;;;;;494434;237;28223;-81
2022/10/17 06:20:19;;;;;;;3.43;3.17;;;15.50;99.90;;;;;;494528;241;28038;-80
2022/10/17 06:22:21;;;;;;;2.67;2.57;;;15.60;99.90;;;;;;494547;241;28716;-81
2022/10/17 06:24:22;;;;;;;2.70;2.50;;;15.50;99.90;;;;;;494376;241;28260;-80
2022/10/17 06:26:23;;;;;;;3.10;2.80;;;15.60;99.90;;;;;;494358;241;28131;-80
2022/10/17 06:28:24;;;;;;;2.40;2.20;;;15.60;99.90;;;;;;494405;241;28046;-80
2022/10/17 06:30:26;;;;;;;3.00;2.70;;;15.50;99.90;;;;;;494374;241;28062;-80
2022/10/17 06:32:27;;;;;;;2.67;2.47;;;15.60;99.90;;;;;;494517;241;28412;-80
2022/10/17 06:34:29;;;;;;;2.93;2.73;;;15.60;99.90;;;;;;494370;241;28146;-81
2022/10/17 06:36:30;;;;;;;2.60;2.40;;;15.60;99.90;;;;;;494323;241;28419;-80
2022/10/17 06:38:31;;;;;;;2.80;2.50;;;15.60;99.90;;;;;;494365;241;28835;-80
2022/10/17 06:40:32;;;;;;;3.33;2.87;;;15.60;99.90;;;;;;494538;241;28750;-81
2022/10/17 06:42:34;;;;;;;2.70;2.50;;;15.70;99.90;;;;;;494478;241;28934;-80
2022/10/17 06:44:35;;;;;;;6.40;3.10;;;15.70;99.90;;;;;;494531;241;28029;-80
2022/10/17 06:46:36;;;;;;;3.50;3.20;;;15.70;99.90;;;;;;494323;241;28486;-80
2022/10/17 06:48:37;;;;;;;5.67;3.00;;;15.70;99.90;;;;;;494512;241;28378;-81
2022/10/17 06:50:39;;;;;;;6.13;3.00;;;15.80;99.90;;;;;;494335;241;28756;-81
2022/10/17 06:52:40;;;;;;;2.87;2.63;;;15.90;99.90;;;;;;494524;241;28288;-80
2022/10/17 06:54:41;;;;;;;3.23;3.03;;;16.00;99.90;;;;;;494537;241;28174;-80
2022/10/17 06:56:42;;;;;;;2.80;2.60;;;16.10;99.90;;;;;;494478;241;28814;-80
2022/10/17 06:58:45;;;;;;;3.10;2.60;;;16.20;99.90;;;;;;494500;241;28688;-80
2022/10/17 07:00:45;;;;;;;2.50;2.30;;;16.30;99.90;;;;;;494316;241;28709;-80
2022/10/17 07:02:46;;;;;;;2.90;2.70;;;16.30;99.90;;;;;;494514;241;29272;-81
2022/10/17 07:04:47;;;;;;;2.40;2.20;;;16.20;99.90;;;;;;494361;241;29184;-80
2022/10/17 07:06:49;;;;;;;2.60;2.40;;;16.20;99.90;;;;;;494463;241;28349;-81
2022/10/17 07:08:50;;;;;;;2.30;2.20;;;16.30;99.90;;;;;;494491;241;28362;-81
2022/10/17 07:10:51;;;;;;;2.77;2.40;;;16.30;99.90;;;;;;494567;241;28376;-80
2022/10/17 07:12:52;;;;;;;7.20;2.50;;;16.30;99.90;;;;;;494529;241;28715;-80
2022/10/17 07:14:54;;;;;;;2.63;2.43;;;16.30;99.90;;;;;;494552;241;28701;-80
2022/10/17 07:16:55;;;;;;;2.90;2.70;;;16.40;99.90;;;;;;494459;241;28702;-81
2022/10/17 07:18:56;;;;;;;2.83;2.60;;;16.50;99.90;;;;;;494449;237;28763;-80
2022/10/17 07:20:57;;;;;;;2.70;2.50;;;16.50;99.90;;;;;;494364;241;28786;-81
2022/10/17 07:22:59;;;;;;;3.30;3.00;;;16.60;99.90;;;;;;494339;241;28727;-81
2022/10/17 07:25:00;;;;;;;2.77;2.57;;;16.60;99.90;;;;;;494538;241;29258;-80
2022/10/17 07:27:01;;;;;;;2.90;2.70;;;16.80;99.90;;;;;;494317;241;29158;-80
2022/10/17 07:29:02;;;;;;;2.50;2.37;;;16.80;99.90;;;;;;494458;237;29248;-79
2022/10/17 07:31:04;;;;;;;5.50;2.27;;;16.80;99.90;;;;;;494557;241;28661;-80
2022/10/17 07:33:05;;;;;;;3.20;2.70;;;16.90;99.90;;;;;;494512;241;28716;-80
2022/10/17 07:35:06;;;;;;;2.57;2.33;;;16.90;99.90;;;;;;494510;241;28704;-80
2022/10/17 07:37:08;;;;;;;2.83;2.20;;;17.00;99.90;;;;;;494324;241;28716;-80
2022/10/17 07:39:09;;;;;;;2.87;2.43;;;17.10;99.90;;;;;;494363;237;28688;-80
2022/10/17 07:41:10;;;;;;;4.83;2.50;;;17.10;99.90;;;;;;494393;241;28674;-81
2022/10/17 07:43:11;;;;;;;2.40;2.20;;;17.20;99.90;;;;;;494332;241;28777;-80
2022/10/17 07:45:13;;;;;;;2.60;2.37;;;17.20;99.90;;;;;;494486;241;28703;-81
2022/10/17 07:47:14;;;;;;;2.60;2.50;;;17.30;99.90;;;;;;494478;241;29178;-79
2022/10/17 07:49:15;;;;;;;2.50;2.40;;;17.50;99.90;;;;;;494321;241;29200;-80
2022/10/17 07:51:18;;;;;;;2.57;2.37;;;17.60;99.90;;;;;;494403;241;29377;-81
2022/10/17 07:53:17;;;;;;;2.80;2.20;;;17.60;99.90;;;;;;494385;241;29142;-80
2022/10/17 07:55:19;;;;;;;2.63;2.43;;;17.50;99.90;;;;;;494529;241;28660;-80
2022/10/17 07:57:20;;;;;;;2.13;2.03;;;17.50;99.90;;;;;;494432;241;28687;-81
2022/10/17 07:59:21;;;;;;;2.30;2.20;;;17.50;99.90;;;;;;494382;241;28698;-81
2022/10/17 08:01:24;;;;;;;2.50;2.30;;;17.50;99.90;;;;;;494361;241;28700;-81
2022/10/17 08:03:24;;;;;;;2.30;2.10;;;17.50;99.90;;;;;;494279;241;28812;-81
2022/10/17 08:05:25;;;;;;;3.40;2.50;;;17.70;99.90;;;;;;494521;241;28715;-81
2022/10/17 08:07:26;;;;;;;2.60;2.40;;;17.70;99.90;;;;;;494425;241;28700;-80
2022/10/17 08:09:28;;;;;;;4.23;2.50;;;17.80;99.90;;;;;;494320;241;28822;-80
2022/10/17 08:11:29;;;;;;;6.90;2.57;;;17.80;99.90;;;;;;494520;241;29223;-80
2022/10/17 08:13:30;;;;;;;2.33;2.13;;;17.80;99.90;;;;;;494432;241;29277;-79
2022/10/17 08:15:31;;;;;;;2.83;2.53;;;17.80;99.90;;;;;;494651;241;28760;-80
2022/10/17 08:17:33;;;;;;;2.60;2.40;;;17.80;99.90;;;;;;494365;237;28685;-80
2022/10/17 08:19:34;;;;;;;2.80;2.60;;;17.80;99.90;;;;;;494544;239;28740;-80
2022/10/17 08:21:35;;;;;;;2.60;2.40;;;17.70;99.90;;;;;;494333;241;28780;-80
2022/10/17 08:23:36;;;;;;;2.53;2.40;;;17.70;99.90;;;;;;494528;241;28736;-80
2022/10/17 08:25:38;;;;;;;2.63;2.30;;;17.70;99.90;;;;;;494424;241;28653;-80
2022/10/17 08:27:39;;;;;;;2.87;2.50;;;17.70;99.90;;;;;;494440;237;28733;-80
2022/10/17 08:29:40;;;;;;;2.87;2.67;;;17.70;99.90;;;;;;494483;241;28743;-80
2022/10/17 08:31:41;;;;;;;3.23;2.40;;;17.70;99.90;;;;;;494520;241;28680;-81
2022/10/17 08:33:43;;;;;;;2.73;2.30;;;17.70;99.90;;;;;;494542;241;28741;-80
2022/10/17 08:35:44;;;;;;;4.90;2.40;;;17.70;99.90;;;;;;494343;241;29201;-81
2022/10/17 08:37:45;;;;;;;2.77;2.47;;;17.70;99.90;;;;;;494389;237;29214;-81
2022/10/17 08:39:46;;;;;;;2.87;2.57;;;17.70;99.90;;;;;;494524;241;29212;-80
2022/10/17 08:41:48;;;;;;;4.00;2.73;;;17.70;99.90;;;;;;494493;237;28665;-81
2022/10/17 08:43:49;;;;;;;2.60;2.10;;;17.60;99.90;;;;;;494478;241;28735;-80
2022/10/17 08:45:50;;;;;;;3.67;2.60;;;17.60;99.90;;;;;;494329;237;28702;-81
2022/10/17 08:47:51;;;;;;;4.10;2.57;;;17.60;99.90;;;;;;494283;241;28681;-81
2022/10/17 08:49:53;;;;;;;2.30;2.20;;;17.60;99.90;;;;;;494351;237;28766;-80
2022/10/17 08:51:54;;;;;;;2.53;2.43;;;17.70;99.90;;;;;;494377;241;28664;-80
2022/10/17 08:53:55;;;;;;;4.43;2.10;;;17.70;99.90;;;;;;494402;241;28685;-80
2022/10/17 08:55:56;;;;;;;2.40;2.23;;;17.70;99.90;;;;;;494507;241;28705;-80
2022/10/17 08:57:58;;;;;;;3.33;2.60;;;17.70;99.90;;;;;;494472;241;28728;-80
2022/10/17 08:59:59;;;;;;;6.73;2.40;;;17.70;99.90;;;;;;494379;240;29505;-80
2022/10/17 09:02:00;;;;;;;3.13;2.70;;;17.80;99.90;;;;;;494353;241;29374;-82
2022/10/17 09:04:01;;;;;;;4.43;2.07;;;17.80;99.90;;;;;;494428;241;28776;-81
2022/10/17 09:06:03;;;;;;;1.90;1.80;;;17.90;99.90;;;;;;494563;241;28797;-81
2022/10/17 09:08:04;;;;;;;2.27;2.17;;;17.90;99.90;;;;;;494548;241;28679;-81
2022/10/17 09:10:05;;;;;;;2.50;2.23;;;18.00;99.90;;;;;;494472;241;28699;-81
2022/10/17 09:12:06;;;;;;;2.50;2.30;;;18.10;99.90;;;;;;494418;241;28776;-82
2022/10/17 09:14:08;;;;;;;3.20;2.30;;;18.20;99.90;;;;;;494430;241;28771;-81
2022/10/17 09:16:09;;;;;;;2.53;2.33;;;18.20;99.90;;;;;;494350;241;28700;-81
2022/10/17 09:18:10;;;;;;;2.47;2.27;;;18.30;99.90;;;;;;494528;241;28673;-84
2022/10/17 09:20:11;;;;;;;2.70;2.50;;;18.40;99.90;;;;;;494373;241;28703;-81
2022/10/17 09:22:13;;;;;;;13.17;2.60;;;18.40;99.90;;;;;;494498;241;29199;-81
2022/10/17 09:24:14;;;;;;;2.93;2.50;;;18.40;99.90;;;;;;494491;241;29269;-81
2022/10/17 09:26:15;;;;;;;2.30;2.13;;;18.40;99.90;;;;;;494278;241;29130;-81
2022/10/17 09:28:17;;;;;;;2.90;2.05;;;18.40;99.90;;;;;;492196;241;47106;-80
2022/10/17 09:30:18;;;;;;;2.93;2.73;;;18.50;99.90;;;;;;494521;241;27338;-80
2022/10/17 09:32:19;;;;;;;2.47;2.27;;;18.60;99.90;;;;;;494503;237;28692;-79
2022/10/17 09:34:20;;;;;;;4.73;2.40;;;18.60;99.90;;;;;;494515;241;28756;-80
2022/10/17 09:36:21;;;;;;;3.00;2.80;;;18.70;99.90;;;;;;494431;237;28717;-81
2022/10/17 09:38:23;;;;;;;5.27;3.37;;;18.70;99.90;;;;;;494504;241;28676;-81
2022/10/17 09:40:24;;;;;;;2.97;2.77;;;18.70;99.90;;;;;;494510;237;28694;-80
2022/10/17 09:42:25;;;;;;;3.73;2.23;;;18.70;99.90;;;;;;494487;241;28684;-81
2022/10/17 09:44:26;;;;;;;4.10;2.07;;;18.80;99.90;;;;;;494500;241;29372;-80
2022/10/17 09:46:28;;;;;;;3.70;2.70;;;18.80;99.90;;;;;;494447;241;29233;-81
2022/10/17 09:48:29;;;;;;;3.53;2.43;;;18.80;99.90;;;;;;494480;241;28681;-81
2022/10/17 09:50:30;;;;;;;3.00;2.70;;;18.80;99.90;;;;;;494308;241;28727;-81
2022/10/17 09:52:31;;;;;;;3.00;2.70;;;18.80;99.90;;;;;;494524;241;28678;-81
2022/10/17 09:54:33;;;;;;;2.57;2.47;;;18.70;99.90;;;;;;494333;241;28787;-81
2022/10/17 09:56:34;;;;;;;2.90;2.70;;;18.80;99.90;;;;;;494266;241;28708;-81
2022/10/17 09:58:35;;;;;;;2.40;2.20;;;18.80;99.90;;;;;;494479;241;28755;-80
2022/10/17 10:00:36;;;;;;;3.03;2.73;;;18.80;99.90;;;;;;494477;241;28758;-80
2022/10/17 10:02:39;;;;;;;2.87;2.57;;;18.80;99.90;;;;;;494494;241;28701;-81
2022/10/17 10:04:39;;;;;;;3.03;2.70;;;18.80;99.90;;;;;;494404;241;28711;-81
2022/10/17 10:06:40;;;;;;;4.13;2.70;;;18.80;99.90;;;;;;494336;241;28696;-81
2022/10/17 10:08:41;;;;;;;4.50;2.83;;;18.80;99.90;;;;;;494443;237;29370;-81
2022/10/17 10:10:43;;;;;;;3.93;2.50;;;18.90;99.90;;;;;;494377;241;28684;-81
2022/10/17 10:12:44;;;;;;;3.10;2.77;;;18.80;99.90;;;;;;494416;241;29221;-81
2022/10/17 10:14:45;;;;;;;5.80;2.30;;;18.80;99.90;;;;;;494540;241;28704;-80
2022/10/17 10:16:46;;;;;;;3.40;3.10;;;18.80;99.90;;;;;;494488;241;28697;-80
2022/10/17 10:18:48;;;;;;;8.63;3.50;;;18.90;99.90;;;;;;494366;241;28666;-81
2022/10/17 10:20:49;;;;;;;3.17;2.60;;;18.90;99.90;;;;;;494515;241;28709;-81
2022/10/17 10:22:50;;;;;;;3.03;2.63;;;19.00;99.90;;;;;;494545;241;28656;-79
2022/10/17 10:24:51;;;;;;;4.07;3.13;;;19.00;99.90;;;;;;494381;241;28700;-80
2022/10/17 10:26:53;;;;;;;3.00;2.70;;;19.00;99.90;;;;;;494490;241;28690;-80
2022/10/17 10:28:54;;;;;;;4.60;2.90;;;19.10;99.90;;;;;;494521;241;28640;-81
2022/10/17 10:30:55;;;;;;;3.13;2.80;;;19.00;99.90;;;;;;494378;239;29261;-81